createdAt,value
2018-02-11T00:00:12.949Z,3.69
2018-02-11T00:01:11.628Z,3.63
2018-02-11T00:02:11.601Z,3.77
2018-02-11T00:03:11.581Z,3.65
2018-02-11T00:04:13.476Z,3.63
2018-02-11T00:05:12.089Z,3.69
2018-02-11T00:06:11.841Z,3.74
2018-02-11T00:07:11.844Z,3.69
2018-02-11T00:08:11.841Z,3.69
2018-02-11T00:09:11.794Z,3.7
2018-02-11T00:10:12.014Z,3.74
2018-02-11T00:11:11.759Z,3.66
2018-02-11T00:12:11.251Z,3.65
2018-02-11T00:13:11.501Z,3.74
2018-02-11T00:14:11.811Z,3.74
2018-02-11T00:15:12.515Z,3.74
2018-02-11T00:16:11.717Z,3.69
2018-02-11T00:17:11.718Z,3.77
2018-02-11T00:18:11.692Z,3.81
2018-02-11T00:19:11.683Z,3.69
2018-02-11T00:20:12.565Z,3.8
2018-02-11T00:21:11.411Z,3.77
2018-02-11T00:22:11.404Z,3.74
2018-02-11T00:23:11.393Z,3.7
2018-02-11T00:24:11.380Z,3.66
2018-02-11T00:25:12.801Z,3.76
2018-02-11T00:26:11.635Z,3.7
2018-02-11T00:27:11.357Z,3.76
2018-02-11T00:28:11.605Z,3.69
2018-02-11T00:29:11.349Z,3.83
2018-02-11T00:30:12.469Z,3.76
2018-02-11T00:31:11.598Z,3.88
2018-02-11T00:32:11.578Z,3.8
2018-02-11T00:33:11.301Z,3.74
2018-02-11T00:34:11.049Z,3.8
2018-02-11T00:35:12.210Z,3.8
2018-02-11T00:36:11.279Z,3.86
2018-02-11T00:37:11.274Z,3.87
2018-02-11T00:38:11.253Z,3.78
2018-02-11T00:39:11.512Z,3.8
2018-02-11T00:40:12.325Z,3.84
2018-02-11T00:41:11.331Z,3.84
2018-02-11T00:42:11.466Z,3.86
2018-02-11T00:43:11.465Z,3.8
2018-02-11T00:44:11.198Z,3.74
2018-02-11T00:45:12.426Z,3.73
2018-02-11T00:46:11.192Z,3.76
2018-02-11T00:47:10.914Z,3.69
2018-02-11T00:48:11.438Z,3.68
2018-02-11T00:49:10.896Z,3.81
2018-02-11T00:50:12.704Z,3.77
2018-02-11T00:51:11.384Z,3.84
2018-02-11T00:52:11.125Z,3.8
2018-02-11T00:53:11.112Z,3.78
2018-02-11T00:54:11.360Z,3.81
2018-02-11T00:55:12.141Z,3.77
2018-02-11T00:56:11.334Z,3.78
2018-02-11T00:57:11.324Z,3.86
2018-02-11T00:58:11.063Z,3.8
2018-02-11T00:59:11.057Z,3.78
2018-02-11T01:00:11.796Z,3.83
2018-02-11T01:01:11.041Z,3.77
2018-02-11T01:02:11.025Z,3.77
2018-02-11T01:03:11.015Z,3.74
2018-02-11T01:04:11.260Z,3.77
2018-02-11T01:05:12.487Z,3.84
2018-02-11T01:06:10.990Z,3.83
2018-02-11T01:07:11.245Z,3.8
2018-02-11T01:08:10.968Z,3.81
2018-02-11T01:09:10.962Z,3.81
2018-02-11T01:10:12.068Z,3.86
2018-02-11T01:11:11.192Z,3.86
2018-02-11T01:12:10.680Z,3.78
2018-02-11T01:13:10.923Z,3.84
2018-02-11T01:14:10.910Z,3.91
2018-02-11T01:15:11.993Z,3.87
2018-02-11T01:16:10.894Z,3.81
2018-02-11T01:17:10.894Z,3.88
2018-02-11T01:18:11.133Z,3.86
2018-02-11T01:19:11.121Z,3.81
2018-02-11T01:20:11.765Z,3.83
2018-02-11T01:21:10.601Z,3.84
2018-02-11T01:22:10.834Z,3.88
2018-02-11T01:23:10.830Z,3.86
2018-02-11T01:24:11.071Z,3.94
2018-02-11T01:25:12.103Z,3.86
2018-02-11T01:26:10.806Z,3.87
2018-02-11T01:27:10.801Z,3.86
2018-02-11T01:28:11.035Z,3.83
2018-02-11T01:29:10.781Z,3.91
2018-02-11T01:30:12.231Z,3.88
2018-02-11T01:31:10.766Z,3.78
2018-02-11T01:32:10.504Z,3.86
2018-02-11T01:33:10.751Z,3.81
2018-02-11T01:34:10.729Z,3.84
2018-02-11T01:35:13.621Z,3.87
2018-02-11T01:36:10.464Z,3.87
2018-02-11T01:37:10.968Z,3.83
2018-02-11T01:38:10.693Z,3.86
2018-02-11T01:39:10.929Z,3.76
2018-02-11T01:40:11.421Z,3.77
2018-02-11T01:41:10.663Z,3.76
2018-02-11T01:42:10.664Z,3.7
2018-02-11T01:43:10.643Z,3.78
2018-02-11T01:44:10.885Z,3.8
2018-02-11T01:45:12.060Z,3.84
2018-02-11T01:46:10.611Z,3.83
2018-02-11T01:47:10.608Z,3.8
2018-02-11T01:48:10.843Z,3.76
2018-02-11T01:49:10.335Z,3.76
2018-02-11T01:50:11.889Z,3.73
2018-02-11T01:51:10.828Z,3.74
2018-02-11T01:52:10.820Z,3.76
2018-02-11T01:53:10.547Z,3.66
2018-02-11T01:54:10.545Z,3.8
2018-02-11T01:55:11.689Z,3.74
2018-02-11T01:56:10.772Z,3.69
2018-02-11T01:57:10.507Z,3.74
2018-02-11T01:58:10.499Z,3.76
2018-02-11T01:59:10.498Z,3.7
2018-02-11T02:00:11.565Z,3.8
2018-02-11T02:01:10.486Z,3.78
2018-02-11T02:02:10.459Z,3.76
2018-02-11T02:03:10.703Z,3.69
2018-02-11T02:04:10.693Z,3.65
2018-02-11T02:05:10.682Z,3.69
2018-02-11T02:06:12.054Z,3.63
2018-02-11T02:07:10.415Z,3.68
2018-02-11T02:08:10.674Z,3.65
2018-02-11T02:09:10.645Z,3.58
2018-02-11T02:10:10.978Z,3.6
2018-02-11T02:11:10.136Z,3.6
2018-02-11T02:12:10.368Z,3.58
2018-02-11T02:13:10.610Z,3.48
2018-02-11T02:14:10.362Z,3.55
2018-02-11T02:15:10.891Z,3.48
2018-02-11T02:16:10.080Z,3.58
2018-02-11T02:17:10.335Z,3.65
2018-02-11T02:18:10.566Z,3.62
2018-02-11T02:19:10.319Z,3.66
2018-02-11T02:20:11.650Z,3.6
2018-02-11T02:21:13.140Z,3.6
2018-02-11T02:22:10.297Z,3.65
2018-02-11T02:23:10.269Z,3.6
2018-02-11T02:24:10.258Z,3.62
2018-02-11T02:25:10.984Z,3.65
2018-02-11T02:26:09.998Z,3.69
2018-02-11T02:27:10.234Z,3.62
2018-02-11T02:28:10.483Z,3.63
2018-02-11T02:29:09.958Z,3.62
2018-02-11T02:30:11.374Z,3.55
2018-02-11T02:31:10.205Z,3.58
2018-02-11T02:32:09.928Z,3.68
2018-02-11T02:33:10.171Z,3.63
2018-02-11T02:34:09.914Z,3.58
2018-02-11T02:35:10.725Z,3.68
2018-02-11T02:36:10.151Z,3.58
2018-02-11T02:37:09.880Z,3.51
2018-02-11T02:38:10.129Z,3.6
2018-02-11T02:39:10.369Z,3.48
2018-02-11T02:40:10.706Z,3.48
2018-02-11T02:41:10.349Z,3.51
2018-02-11T02:42:09.834Z,3.53
2018-02-11T02:43:10.344Z,3.41
2018-02-11T02:44:10.328Z,3.47
2018-02-11T02:45:10.712Z,3.41
2018-02-11T02:46:10.053Z,3.4
2018-02-11T02:47:09.794Z,3.45
2018-02-11T02:48:10.036Z,3.32
2018-02-11T02:49:10.024Z,3.36
2018-02-11T02:50:11.050Z,3.4
2018-02-11T02:51:10.270Z,3.44
2018-02-11T02:52:11.642Z,3.37
2018-02-11T02:53:10.235Z,3.29
2018-02-11T02:54:09.723Z,3.37
2018-02-11T02:55:10.474Z,3.21
2018-02-11T02:56:09.713Z,3.26
2018-02-11T02:57:10.202Z,3.31
2018-02-11T02:58:10.193Z,3.31
2018-02-11T02:59:10.190Z,3.22
2018-02-11T03:00:10.627Z,3.25
2018-02-11T03:01:09.905Z,3.26
2018-02-11T03:02:09.652Z,3.26
2018-02-11T03:03:10.148Z,3.37
2018-02-11T03:04:09.877Z,3.34
2018-02-11T03:05:10.474Z,3.31
2018-02-11T03:06:10.120Z,3.28
2018-02-11T03:07:11.202Z,3.32
2018-02-11T03:08:10.100Z,3.32
2018-02-11T03:09:10.082Z,3.22
2018-02-11T03:10:10.908Z,3.31
2018-02-11T03:11:09.809Z,3.21
2018-02-11T03:12:09.802Z,3.29
2018-02-11T03:13:10.038Z,3.22
2018-02-11T03:14:09.796Z,3.22
2018-02-11T03:15:09.824Z,3.11
2018-02-11T03:16:09.763Z,3.21
2018-02-11T03:17:10.002Z,3.25
2018-02-11T03:18:10.004Z,3.19
2018-02-11T03:19:09.981Z,3.23
2018-02-11T03:20:09.886Z,3.08
2018-02-11T03:21:09.717Z,3.16
2018-02-11T03:22:09.966Z,3.22
2018-02-11T03:23:09.717Z,3.14
2018-02-11T03:24:09.689Z,3.14
2018-02-11T03:25:09.908Z,3.13
2018-02-11T03:26:09.422Z,3.23
2018-02-11T03:27:09.911Z,3.26
2018-02-11T03:28:09.656Z,3.13
2018-02-11T03:29:09.633Z,3.23
2018-02-11T03:30:10.018Z,3.26
2018-02-11T03:31:09.871Z,3.07
2018-02-11T03:32:09.366Z,3.14
2018-02-11T03:33:09.847Z,3.21
2018-02-11T03:34:09.590Z,3.11
2018-02-11T03:35:09.759Z,3.16
2018-02-11T03:36:09.869Z,3.16
2018-02-11T03:37:09.313Z,3.1
2018-02-11T03:38:09.790Z,3.13
2018-02-11T03:39:09.282Z,3.14
2018-02-11T03:40:09.954Z,3.21
2018-02-11T03:41:09.513Z,3.21
2018-02-11T03:42:09.514Z,3.1
2018-02-11T03:43:09.760Z,3.23
2018-02-11T03:44:09.484Z,3.14
2018-02-11T03:45:10.234Z,3.14
2018-02-11T03:46:09.470Z,3.1
2018-02-11T03:47:09.465Z,3.21
2018-02-11T03:48:09.444Z,3.21
2018-02-11T03:49:09.189Z,3.1
2018-02-11T03:50:09.893Z,3.23
2018-02-11T03:51:09.700Z,3.22
2018-02-11T03:52:09.656Z,3.23
2018-02-11T03:53:09.648Z,3.23
2018-02-11T03:54:09.384Z,3.25
2018-02-11T03:55:10.092Z,3.28
2018-02-11T03:56:09.382Z,3.26
2018-02-11T03:57:09.110Z,3.31
2018-02-11T03:58:09.594Z,3.36
2018-02-11T03:59:09.591Z,3.48
2018-02-11T04:00:09.764Z,3.44
2018-02-11T04:01:09.324Z,3.42
2018-02-11T04:02:09.558Z,3.51
2018-02-11T04:03:09.295Z,3.47
2018-02-11T04:04:09.292Z,3.53
2018-02-11T04:05:09.698Z,3.58
2018-02-11T04:06:09.264Z,3.59
2018-02-11T04:07:09.506Z,3.58
2018-02-11T04:08:09.509Z,3.51
2018-02-11T04:09:09.247Z,3.58
2018-02-11T04:10:09.862Z,3.58
2018-02-11T04:11:09.261Z,3.51
2018-02-11T04:12:09.535Z,3.51
2018-02-11T04:13:09.454Z,3.55
2018-02-11T04:14:09.188Z,3.58
2018-02-11T04:15:09.872Z,3.58
2018-02-11T04:16:09.236Z,3.63
2018-02-11T04:17:09.419Z,3.58
2018-02-11T04:18:09.412Z,3.62
2018-02-11T04:19:09.141Z,3.53
2018-02-11T04:20:09.516Z,3.62
2018-02-11T04:21:09.120Z,3.6
2018-02-11T04:22:09.114Z,3.62
2018-02-11T04:23:09.112Z,3.47
2018-02-11T04:24:09.095Z,3.45
2018-02-11T04:25:09.766Z,3.62
2018-02-11T04:26:09.071Z,3.55
2018-02-11T04:27:09.062Z,3.48
2018-02-11T04:28:09.313Z,3.58
2018-02-11T04:29:09.047Z,3.62
2018-02-11T04:30:09.696Z,3.6
2018-02-11T04:31:09.028Z,3.56
2018-02-11T04:32:09.276Z,3.59
2018-02-11T04:33:08.755Z,3.59
2018-02-11T04:34:08.994Z,3.53
2018-02-11T04:35:09.333Z,3.56
2018-02-11T04:36:08.980Z,3.58
2018-02-11T04:37:09.220Z,3.59
2018-02-11T04:38:09.207Z,3.58
2018-02-11T04:39:09.210Z,3.63
2018-02-11T04:40:09.609Z,3.6
2018-02-11T04:41:09.180Z,3.53
2018-02-11T04:42:08.977Z,3.5
2018-02-11T04:43:09.050Z,3.53
2018-02-11T04:44:09.149Z,3.5
2018-02-11T04:45:08.827Z,3.44
2018-02-11T04:46:08.884Z,3.42
2018-02-11T04:47:08.874Z,3.5
2018-02-11T04:48:08.871Z,3.44
2018-02-11T04:49:09.121Z,3.45
2018-02-11T04:50:09.444Z,3.42
2018-02-11T04:51:09.095Z,3.32
2018-02-11T04:52:08.820Z,3.45
2018-02-11T04:53:08.835Z,3.42
2018-02-11T04:54:09.060Z,3.45
2018-02-11T04:55:09.399Z,3.47
2018-02-11T04:56:09.053Z,3.45
2018-02-11T04:57:08.790Z,3.41
2018-02-11T04:58:09.017Z,3.36
2018-02-11T04:59:08.779Z,3.34
2018-02-11T05:00:09.378Z,3.44
2018-02-11T05:01:08.746Z,3.42
2018-02-11T05:02:08.989Z,3.36
2018-02-11T05:03:08.732Z,3.4
2018-02-11T05:04:08.965Z,3.34
2018-02-11T05:05:09.328Z,3.28
2018-02-11T05:06:08.707Z,3.32
2018-02-11T05:07:08.945Z,3.28
2018-02-11T05:08:09.988Z,3.29
2018-02-11T05:09:08.930Z,3.28
2018-02-11T05:10:09.101Z,3.32
2018-02-11T05:11:08.721Z,3.31
2018-02-11T05:12:08.887Z,3.4
2018-02-11T05:13:08.944Z,3.42
2018-02-11T05:14:08.619Z,3.44
2018-02-11T05:15:09.071Z,3.42
2018-02-11T05:16:08.613Z,3.42
2018-02-11T05:17:08.862Z,3.48
2018-02-11T05:18:08.602Z,3.32
2018-02-11T05:19:08.865Z,3.4
2018-02-11T05:20:09.229Z,3.34
2018-02-11T05:21:08.314Z,3.37
2018-02-11T05:22:08.554Z,3.36
2018-02-11T05:23:08.777Z,3.5
2018-02-11T05:24:08.798Z,3.41
2018-02-11T05:25:08.705Z,3.32
2018-02-11T05:26:08.745Z,3.4
2018-02-11T05:27:08.759Z,3.18
2018-02-11T05:28:08.485Z,3.26
2018-02-11T05:29:08.215Z,3.23
2018-02-11T05:30:08.589Z,3.28
2018-02-11T05:31:08.440Z,3.19
2018-02-11T05:32:08.681Z,3.21
2018-02-11T05:33:08.674Z,3.21
2018-02-11T05:34:08.159Z,3.22
2018-02-11T05:35:08.931Z,3.11
2018-02-11T05:36:08.655Z,3.22
2018-02-11T05:37:08.645Z,3.21
2018-02-11T05:38:08.119Z,3.23
2018-02-11T05:39:08.359Z,3.1
2018-02-11T05:40:08.579Z,3.13
2018-02-11T05:41:08.597Z,3.11
2018-02-11T05:42:08.584Z,3.08
2018-02-11T05:43:08.328Z,3.1
2018-02-11T05:44:08.327Z,3.16
2018-02-11T05:45:08.472Z,3.14
2018-02-11T05:46:08.544Z,3.21
2018-02-11T05:47:08.284Z,3.28
2018-02-11T05:48:08.275Z,3.23
2018-02-11T05:49:08.016Z,3.25
2018-02-11T05:50:08.465Z,3.28
2018-02-11T05:51:08.247Z,3.42
2018-02-11T05:52:07.984Z,3.37
2018-02-11T05:53:08.227Z,3.42
2018-02-11T05:54:08.464Z,3.44
2018-02-11T05:55:08.672Z,3.5
2018-02-11T05:56:08.193Z,3.48
2018-02-11T05:57:08.185Z,3.48
2018-02-11T05:58:08.496Z,3.5
2018-02-11T05:59:08.162Z,3.42
2018-02-11T06:00:08.417Z,3.48
2018-02-11T06:01:08.148Z,3.48
2018-02-11T06:02:07.884Z,3.36
2018-02-11T06:03:08.131Z,3.42
2018-02-11T06:04:07.864Z,3.51
2018-02-11T06:05:08.304Z,3.51
2018-02-11T06:06:07.845Z,3.5
2018-02-11T06:07:08.351Z,3.5
2018-02-11T06:08:08.085Z,3.55
2018-02-11T06:09:08.321Z,3.59
2018-02-11T06:10:08.168Z,3.62
2018-02-11T06:11:08.296Z,3.63
2018-02-11T06:12:08.310Z,3.62
2018-02-11T06:13:08.283Z,3.62
2018-02-11T06:14:08.028Z,3.59
2018-02-11T06:15:08.354Z,3.6
2018-02-11T06:16:08.002Z,3.62
2018-02-11T06:17:08.248Z,3.62
2018-02-11T06:18:08.371Z,3.6
2018-02-11T06:19:07.715Z,3.62
2018-02-11T06:20:08.005Z,3.62
2018-02-11T06:21:08.209Z,3.66
2018-02-11T06:22:07.945Z,3.58
2018-02-11T06:23:07.945Z,3.63
2018-02-11T06:24:08.244Z,3.7
2018-02-11T06:25:08.265Z,3.59
2018-02-11T06:26:07.654Z,3.58
2018-02-11T06:27:08.141Z,3.65
2018-02-11T06:28:07.887Z,3.62
2018-02-11T06:29:08.141Z,3.74
2018-02-11T06:30:08.281Z,3.66
2018-02-11T06:31:08.109Z,3.69
2018-02-11T06:32:08.109Z,3.65
2018-02-11T06:33:07.832Z,3.63
2018-02-11T06:34:08.090Z,3.6
2018-02-11T06:35:08.315Z,3.68
2018-02-11T06:36:07.553Z,3.69
2018-02-11T06:37:07.793Z,3.65
2018-02-11T06:38:07.783Z,3.7
2018-02-11T06:39:10.438Z,3.78
2018-02-11T06:40:07.939Z,3.73
2018-02-11T06:41:07.755Z,3.7
2018-02-11T06:42:08.002Z,3.74
2018-02-11T06:43:07.742Z,3.74
2018-02-11T06:44:07.483Z,3.77
2018-02-11T06:45:07.724Z,3.86
2018-02-11T06:46:07.963Z,3.77
2018-02-11T06:47:07.696Z,3.86
2018-02-11T06:48:07.446Z,3.88
2018-02-11T06:49:07.938Z,3.95
2018-02-11T06:50:07.958Z,3.83
2018-02-11T06:51:07.666Z,3.95
2018-02-11T06:52:08.010Z,4.01
2018-02-11T06:53:07.927Z,3.96
2018-02-11T06:54:07.643Z,4.01
2018-02-11T06:55:07.944Z,4.01
2018-02-11T06:56:07.372Z,3.96
2018-02-11T06:57:07.919Z,3.95
2018-02-11T06:58:07.604Z,4.01
2018-02-11T06:59:07.588Z,4.04
2018-02-11T07:00:07.938Z,4.04
2018-02-11T07:01:07.838Z,4.05
2018-02-11T07:02:07.828Z,4.06
2018-02-11T07:03:07.556Z,3.95
2018-02-11T07:04:07.539Z,4.01
2018-02-11T07:05:07.785Z,4.08
2018-02-11T07:06:07.768Z,4.05
2018-02-11T07:07:07.514Z,4.04
2018-02-11T07:08:07.502Z,4.05
2018-02-11T07:09:07.519Z,4.05
2018-02-11T07:10:07.781Z,4.04
2018-02-11T07:11:07.766Z,3.99
2018-02-11T07:12:07.709Z,4.02
2018-02-11T07:13:07.702Z,4.04
2018-02-11T07:14:07.708Z,4.04
2018-02-11T07:15:07.685Z,4.08
2018-02-11T07:16:07.174Z,4.13
2018-02-11T07:17:07.418Z,4.14
2018-02-11T07:18:07.396Z,4.12
2018-02-11T07:19:07.642Z,4.16
2018-02-11T07:20:07.384Z,4.1
2018-02-11T07:21:07.638Z,4.12
2018-02-11T07:22:07.364Z,4.12
2018-02-11T07:23:07.353Z,4.12
2018-02-11T07:24:07.351Z,4.19
2018-02-11T07:25:07.087Z,4.13
2018-02-11T07:26:07.578Z,4.31
2018-02-11T07:27:07.571Z,4.23
2018-02-11T07:28:07.568Z,4.26
2018-02-11T07:29:07.297Z,4.26
2018-02-11T07:30:07.652Z,4.3
2018-02-11T07:31:07.283Z,4.28
2018-02-11T07:32:07.280Z,4.31
2018-02-11T07:33:07.517Z,4.3
2018-02-11T07:34:07.252Z,4.31
2018-02-11T07:35:07.246Z,4.28
2018-02-11T07:36:06.990Z,4.26
2018-02-11T07:37:06.976Z,4.23
2018-02-11T07:38:07.480Z,4.3
2018-02-11T07:39:07.464Z,4.32
2018-02-11T07:40:10.777Z,4.23
2018-02-11T07:41:07.442Z,4.23
2018-02-11T07:42:07.190Z,4.24
2018-02-11T07:43:07.176Z,4.3
2018-02-11T07:44:07.168Z,4.28
2018-02-11T07:45:07.675Z,4.32
2018-02-11T07:46:07.397Z,4.31
2018-02-11T07:47:07.399Z,4.31
2018-02-11T07:48:07.379Z,4.22
2018-02-11T07:49:07.118Z,4.26
2018-02-11T07:50:07.368Z,4.26
2018-02-11T07:51:07.103Z,4.19
2018-02-11T07:52:07.343Z,4.3
2018-02-11T07:53:07.078Z,4.3
2018-02-11T07:54:07.329Z,4.24
2018-02-11T07:55:07.903Z,4.22
2018-02-11T07:56:07.060Z,4.3
2018-02-11T07:57:07.293Z,4.37
2018-02-11T07:58:07.288Z,4.34
2018-02-11T07:59:06.772Z,4.44
2018-02-11T08:00:07.273Z,4.41
2018-02-11T08:01:07.009Z,4.48
2018-02-11T08:02:07.258Z,4.49
2018-02-11T08:03:07.243Z,4.49
2018-02-11T08:04:07.239Z,4.5
2018-02-11T08:05:06.973Z,4.58
2018-02-11T08:06:07.222Z,4.58
2018-02-11T08:07:06.953Z,4.55
2018-02-11T08:08:06.954Z,4.5
2018-02-11T08:09:07.201Z,4.5
2018-02-11T08:10:07.381Z,4.52
2018-02-11T08:11:07.208Z,4.48
2018-02-11T08:12:06.904Z,4.5
2018-02-11T08:13:06.649Z,4.52
2018-02-11T08:14:06.892Z,4.49
2018-02-11T08:15:06.892Z,4.53
2018-02-11T08:16:07.128Z,4.44
2018-02-11T08:17:06.628Z,4.48
2018-02-11T08:18:06.854Z,4.52
2018-02-11T08:19:06.596Z,4.58
2018-02-11T08:20:07.085Z,4.59
2018-02-11T08:21:06.606Z,4.66
2018-02-11T08:22:06.838Z,4.63
2018-02-11T08:23:07.069Z,4.6
2018-02-11T08:24:06.598Z,4.66
2018-02-11T08:25:07.849Z,4.78
2018-02-11T08:26:07.042Z,4.59
2018-02-11T08:27:07.032Z,4.75
2018-02-11T08:28:06.554Z,4.75
2018-02-11T08:29:06.807Z,4.73
2018-02-11T08:30:06.790Z,4.86
2018-02-11T08:31:06.740Z,4.9
2018-02-11T08:32:06.745Z,4.82
2018-02-11T08:33:06.986Z,4.75
2018-02-11T08:34:06.494Z,4.84
2018-02-11T08:35:07.022Z,4.87
2018-02-11T08:36:06.696Z,4.77
2018-02-11T08:37:06.936Z,4.8
2018-02-11T08:39:06.924Z,4.87
2018-02-11T08:40:06.909Z,4.92
2018-02-11T08:41:06.437Z,4.94
2018-02-11T08:42:06.890Z,4.8
2018-02-11T08:43:06.644Z,4.87
2018-02-11T08:44:06.893Z,4.9
2018-02-11T08:45:06.877Z,4.86
2018-02-11T08:46:06.625Z,4.89
2018-02-11T08:47:06.617Z,4.87
2018-02-11T08:48:06.630Z,4.94
2018-02-11T08:49:06.846Z,4.9
2018-02-11T08:50:06.850Z,5
2018-02-11T08:51:06.842Z,4.97
2018-02-11T08:52:06.581Z,5.02
2018-02-11T08:53:06.564Z,5.02
2018-02-11T08:54:06.827Z,5.02
2018-02-11T08:55:06.569Z,5.1
2018-02-11T08:56:06.774Z,5.1
2018-02-11T08:57:06.535Z,5.04
2018-02-11T08:58:06.770Z,5.04
2018-02-11T08:59:06.508Z,5.17
2018-02-11T09:00:06.840Z,5.2
2018-02-11T09:01:06.740Z,5.21
2018-02-11T09:02:06.466Z,5.25
2018-02-11T09:03:06.730Z,5.28
2018-02-11T09:04:06.458Z,5.26
2018-02-11T09:05:06.452Z,5.3
2018-02-11T09:06:06.434Z,5.26
2018-02-11T09:07:06.789Z,5.33
2018-02-11T09:08:06.685Z,5.35
2018-02-11T09:09:06.686Z,5.3
2018-02-11T09:10:06.458Z,5.33
2018-02-11T09:11:08.854Z,5.33
2018-02-11T09:12:06.400Z,5.36
2018-02-11T09:13:06.746Z,5.46
2018-02-11T09:14:06.397Z,5.39
2018-02-11T09:15:06.632Z,5.51
2018-02-11T09:16:06.617Z,5.43
2018-02-11T09:17:06.356Z,5.46
2018-02-11T09:18:06.595Z,5.39
2018-02-11T09:19:06.606Z,5.44
2018-02-11T09:20:06.328Z,5.35
2018-02-11T09:21:06.332Z,5.28
2018-02-11T09:22:06.315Z,5.35
2018-02-11T09:23:06.314Z,5.29
2018-02-11T09:24:06.560Z,5.29
2018-02-11T09:25:06.283Z,5.3
2018-02-11T09:26:06.532Z,5.28
2018-02-11T09:27:06.530Z,5.26
2018-02-11T09:28:06.268Z,5.28
2018-02-11T09:29:06.504Z,5.29
2018-02-11T09:30:06.290Z,5.28
2018-02-11T09:31:06.250Z,5.32
2018-02-11T09:32:06.480Z,5.39
2018-02-11T09:33:06.229Z,5.35
2018-02-11T09:34:06.211Z,5.41
2018-02-11T09:35:06.470Z,5.46
2018-02-11T09:36:06.207Z,5.56
2018-02-11T09:37:06.184Z,5.56
2018-02-11T09:38:06.183Z,5.62
2018-02-11T09:39:06.445Z,5.54
2018-02-11T09:40:06.423Z,5.62
2018-02-11T09:41:06.411Z,5.57
2018-02-11T09:42:05.892Z,5.51
2018-02-11T09:43:06.439Z,5.57
2018-02-11T09:44:05.877Z,5.5
2018-02-11T09:45:06.167Z,5.46
2018-02-11T09:46:06.124Z,5.47
2018-02-11T09:47:06.355Z,5.46
2018-02-11T09:48:06.347Z,5.54
2018-02-11T09:49:06.091Z,5.57
2018-02-11T09:50:06.086Z,5.5
2018-02-11T09:51:06.328Z,5.57
2018-02-11T09:52:05.818Z,5.56
2018-02-11T09:53:05.810Z,5.56
2018-02-11T09:54:06.342Z,5.57
2018-02-11T09:55:06.305Z,5.61
2018-02-11T09:56:06.036Z,5.62
2018-02-11T09:57:05.790Z,5.69
2018-02-11T09:58:06.022Z,5.65
2018-02-11T09:59:06.262Z,5.65
2018-02-11T10:00:06.309Z,5.71
2018-02-11T10:01:06.001Z,5.76
2018-02-11T10:02:06.239Z,5.84
2018-02-11T10:03:06.234Z,5.84
2018-02-11T10:04:06.230Z,5.94
2018-02-11T10:05:05.972Z,5.9
2018-02-11T10:06:06.215Z,6.01
2018-02-11T10:07:05.951Z,6.07
2018-02-11T10:08:05.957Z,6.19
2018-02-11T10:09:06.190Z,6.26
2018-02-11T10:10:05.930Z,6.26
2018-02-11T10:11:05.925Z,6.26
2018-02-11T10:12:09.889Z,6.17
2018-02-11T10:13:05.913Z,6.12
2018-02-11T10:14:06.174Z,6.12
2018-02-11T10:15:05.908Z,6.05
2018-02-11T10:16:06.142Z,6.05
2018-02-11T10:17:05.881Z,6.09
2018-02-11T10:18:06.136Z,6.2
2018-02-11T10:19:05.616Z,6.33
2018-02-11T10:20:06.111Z,6.3
2018-02-11T10:21:05.602Z,6.24
2018-02-11T10:22:05.865Z,6.28
2018-02-11T10:23:05.587Z,6.33
2018-02-11T10:24:06.098Z,6.28
2018-02-11T10:53:49.731Z,6.48
2018-02-11T10:54:47.736Z,6.51
2018-02-11T10:55:47.980Z,6.52
2018-02-11T10:56:47.942Z,6.49
2018-02-11T10:57:47.674Z,6.33
2018-02-11T10:58:47.917Z,6.2
2018-02-11T10:59:47.650Z,6.24
2018-02-11T11:00:47.399Z,6.17
2018-02-11T11:01:47.381Z,6.14
2018-02-11T11:02:47.374Z,6.2
2018-02-11T11:03:47.866Z,6.27
2018-02-11T11:04:47.610Z,6.2
2018-02-11T11:05:47.846Z,6.42
2018-02-11T11:06:47.344Z,6.24
2018-02-11T11:07:47.618Z,6.22
2018-02-11T11:08:47.579Z,6.28
2018-02-11T11:09:47.567Z,6.19
2018-02-11T11:10:47.305Z,6.11
2018-02-11T11:11:47.547Z,6.24
2018-02-11T11:12:47.792Z,6.3
2018-02-11T11:13:47.783Z,6.31
2018-02-11T11:14:47.781Z,6.36
2018-02-11T11:15:47.777Z,6.36
2018-02-11T11:16:47.507Z,6.38
2018-02-11T11:17:47.752Z,6.38
2018-02-11T11:18:47.500Z,6.38
2018-02-11T11:19:47.744Z,6.42
2018-02-11T11:20:47.735Z,6.48
2018-02-11T11:21:47.619Z,6.46
2018-02-11T11:22:48.392Z,6.57
2018-02-11T11:23:47.979Z,6.66
2018-02-11T11:24:47.739Z,6.77
2018-02-11T11:25:47.449Z,6.78
2018-02-11T11:26:47.694Z,6.82
2018-02-11T11:27:47.181Z,6.77
2018-02-11T11:28:47.687Z,6.74
2018-02-11T11:29:47.671Z,6.77
2018-02-11T11:30:47.409Z,6.72
2018-02-11T11:31:47.151Z,6.88
2018-02-11T11:32:47.656Z,6.78
2018-02-11T11:33:47.648Z,6.75
2018-02-11T11:34:47.138Z,6.64
2018-02-11T11:35:47.131Z,6.67
2018-02-11T11:36:47.627Z,6.54
2018-02-11T11:37:47.368Z,6.59
2018-02-11T11:38:47.393Z,6.63
2018-02-11T11:39:47.359Z,6.64
2018-02-11T11:40:47.601Z,6.69
2018-02-11T11:41:47.093Z,6.52
2018-02-11T11:42:47.338Z,6.56
2018-02-11T11:43:47.601Z,6.54
2018-02-11T11:44:47.076Z,6.59
2018-02-11T11:45:47.565Z,6.66
2018-02-11T11:46:47.312Z,6.59
2018-02-11T11:47:47.561Z,6.63
2018-02-11T11:48:47.050Z,6.64
2018-02-11T11:49:47.548Z,6.74
2018-02-11T11:50:47.281Z,6.64
2018-02-11T11:51:47.525Z,6.72
2018-02-11T11:52:47.021Z,6.63
2018-02-11T11:53:49.526Z,6.69
2018-02-11T11:54:47.002Z,6.75
2018-02-11T11:55:47.332Z,6.81
2018-02-11T11:56:47.245Z,6.69
2018-02-11T11:57:47.241Z,6.72
2018-02-11T11:58:47.494Z,6.75
2018-02-11T11:59:47.228Z,6.7
2018-02-11T12:00:47.221Z,6.78
2018-02-11T12:01:47.229Z,6.72
2018-02-11T12:02:47.204Z,6.85
2018-02-11T12:03:47.553Z,6.92
2018-02-11T12:04:47.444Z,6.92
2018-02-11T12:05:46.935Z,6.84
2018-02-11T12:06:46.959Z,6.95
2018-02-11T12:07:47.423Z,6.88
2018-02-11T12:08:47.641Z,6.96
2018-02-11T12:09:46.939Z,6.72
2018-02-11T12:10:47.162Z,6.72
2018-02-11T12:11:47.412Z,6.7
2018-02-11T12:12:47.409Z,6.77
2018-02-11T12:13:47.462Z,6.72
2018-02-11T12:14:48.201Z,6.84
2018-02-11T12:15:47.124Z,6.88
2018-02-11T12:16:47.377Z,6.84
2018-02-11T12:17:47.115Z,6.84
2018-02-11T12:18:47.107Z,6.92
2018-02-11T12:19:46.854Z,7.06
2018-02-11T12:20:47.107Z,7.03
2018-02-11T12:21:46.839Z,7.07
2018-02-11T12:22:46.832Z,7.06
2018-02-11T12:23:50.090Z,7.17
2018-02-11T12:24:46.873Z,7.15
2018-02-11T12:25:47.168Z,7.11
2018-02-11T12:26:47.081Z,7.06
2018-02-11T12:27:47.053Z,7.06
2018-02-11T12:28:46.806Z,7.07
2018-02-11T12:29:47.041Z,7.14
2018-02-11T12:30:46.798Z,7.15
2018-02-11T12:31:47.318Z,7.15
2018-02-11T12:32:47.276Z,7.15
2018-02-11T12:33:47.269Z,7.1
2018-02-11T12:34:47.076Z,7.13
2018-02-11T12:35:47.001Z,7.14
2018-02-11T12:36:47.004Z,7.24
2018-02-11T12:37:46.994Z,7.31
2018-02-11T12:38:47.244Z,7.31
2018-02-11T12:39:47.246Z,7.38
2018-02-11T12:40:47.278Z,7.35
2018-02-11T12:41:46.977Z,7.33
2018-02-11T12:42:46.722Z,7.28
2018-02-11T12:43:46.963Z,7.29
2018-02-11T12:44:46.703Z,7.29
2018-02-11T12:45:47.473Z,7.29
2018-02-11T12:46:46.991Z,7.28
2018-02-11T12:47:47.182Z,7.25
2018-02-11T12:48:47.020Z,7.33
2018-02-11T12:49:46.722Z,7.29
2018-02-11T12:50:46.757Z,7.21
2018-02-11T12:51:47.192Z,7.38
2018-02-11T12:52:47.187Z,7.4
2018-02-11T12:53:46.898Z,7.38
2018-02-11T12:54:48.183Z,7.38
2018-02-11T12:55:47.150Z,7.38
2018-02-11T12:56:47.135Z,7.39
2018-02-11T12:57:46.772Z,7.51
2018-02-11T12:58:47.156Z,7.45
2018-02-11T12:59:46.908Z,7.54
2018-02-11T13:00:46.624Z,7.61
2018-02-11T13:01:47.124Z,7.56
2018-02-11T13:02:46.602Z,7.57
2018-02-11T13:03:46.600Z,7.57
2018-02-11T13:04:47.183Z,7.6
2018-02-11T13:05:46.822Z,7.43
2018-02-11T13:06:46.599Z,7.54
2018-02-11T13:07:46.823Z,7.53
2018-02-11T13:08:46.843Z,7.51
2018-02-11T13:09:46.805Z,7.54
2018-02-11T13:10:46.798Z,7.61
2018-02-11T13:11:46.792Z,7.56
2018-02-11T13:12:47.079Z,7.57
2018-02-11T13:13:46.793Z,7.57
2018-02-11T13:14:46.822Z,7.58
2018-02-11T13:15:46.783Z,7.53
2018-02-11T13:16:47.106Z,7.47
2018-02-11T13:17:46.765Z,7.5
2018-02-11T13:18:46.777Z,7.4
2018-02-11T13:19:46.842Z,7.58
2018-02-11T13:20:46.489Z,7.43
2018-02-11T13:21:46.737Z,7.63
2018-02-11T13:22:46.482Z,7.6
2018-02-11T13:23:46.974Z,7.57
2018-02-11T13:24:46.486Z,7.56
2018-02-11T13:25:46.969Z,7.61
2018-02-11T13:26:47.007Z,7.57
2018-02-11T13:27:46.794Z,7.67
2018-02-11T13:28:46.705Z,7.67
2018-02-11T13:29:47.428Z,7.76
2018-02-11T13:30:46.940Z,7.72
2018-02-11T13:31:47.645Z,7.85
2018-02-11T13:32:46.922Z,7.79
2018-02-11T13:33:46.927Z,7.69
2018-02-11T13:34:46.680Z,7.7
2018-02-11T13:35:46.916Z,7.75
2018-02-11T13:36:46.898Z,7.67
2018-02-11T13:37:46.651Z,7.56
2018-02-11T13:38:46.629Z,7.54
2018-02-11T13:39:46.880Z,7.63
2018-02-11T13:40:47.356Z,7.51
2018-02-11T13:41:46.917Z,7.58
2018-02-11T13:42:47.268Z,7.5
2018-02-11T13:43:46.911Z,7.47
2018-02-11T13:44:46.607Z,7.5
2018-02-11T13:45:46.339Z,7.66
2018-02-11T13:46:46.842Z,7.6
2018-02-11T13:47:46.586Z,7.67
2018-02-11T13:48:46.583Z,7.8
2018-02-11T13:49:46.565Z,7.72
2018-02-11T13:50:46.569Z,7.73